sensor_id;sensor_type;location;lat;lon;timestamp;P1;durP1;ratioP1;P2;durP2;ratioP2
16800;SDS011;8518;53.236;10.384;2023-02-15T00:02:12;98.23;;;41.93;;
16800;SDS011;8518;53.236;10.384;2023-02-15T00:04:38;68.93;;;38.83;;
16800;SDS011;8518;53.236;10.384;2023-02-15T00:07:13;88.63;;;40.10;;
16800;SDS011;8518;53.236;10.384;2023-02-15T00:09:41;93.80;;;38.43;;
16800;SDS011;8518;53.236;10.384;2023-02-15T00:12:16;73.50;;;38.73;;
16800;SDS011;8518;53.236;10.384;2023-02-15T00:14:42;94.77;;;38.90;;
16800;SDS011;8518;53.236;10.384;2023-02-15T00:17:08;68.53;;;39.10;;
16800;SDS011;8518;53.236;10.384;2023-02-15T00:19:34;75.20;;;37.70;;
16800;SDS011;8518;53.236;10.384;2023-02-15T00:22:01;83.67;;;39.87;;
16800;SDS011;8518;53.236;10.384;2023-02-15T00:24:27;99.47;;;39.33;;
16800;SDS011;8518;53.236;10.384;2023-02-15T00:26:53;96.60;;;40.47;;
16800;SDS011;8518;53.236;10.384;2023-02-15T00:29:19;89.23;;;38.03;;
16800;SDS011;8518;53.236;10.384;2023-02-15T00:34:36;76.30;;;37.07;;
16800;SDS011;8518;53.236;10.384;2023-02-15T00:37:01;85.83;;;37.13;;
16800;SDS011;8518;53.236;10.384;2023-02-15T00:39:27;105.03;;;37.77;;
16800;SDS011;8518;53.236;10.384;2023-02-15T00:42:04;101.23;;;38.53;;
16800;SDS011;8518;53.236;10.384;2023-02-15T00:44:29;88.60;;;37.50;;
16800;SDS011;8518;53.236;10.384;2023-02-15T00:46:55;77.93;;;36.43;;
16800;SDS011;8518;53.236;10.384;2023-02-15T00:49:21;110.23;;;36.60;;
16800;SDS011;8518;53.236;10.384;2023-02-15T00:51:50;114.97;;;39.77;;
16800;SDS011;8518;53.236;10.384;2023-02-15T00:54:16;92.47;;;38.20;;
16800;SDS011;8518;53.236;10.384;2023-02-15T00:56:42;116.20;;;36.93;;
16800;SDS011;8518;53.236;10.384;2023-02-15T00:59:08;68.43;;;34.23;;
16800;SDS011;8518;53.236;10.384;2023-02-15T01:01:34;71.83;;;36.57;;
16800;SDS011;8518;53.236;10.384;2023-02-15T01:04:01;61.03;;;35.87;;
16800;SDS011;8518;53.236;10.384;2023-02-15T01:06:26;60.47;;;35.13;;
16800;SDS011;8518;53.236;10.384;2023-02-15T01:08:52;98.63;;;36.40;;
16800;SDS011;8518;53.236;10.384;2023-02-15T01:11:21;77.47;;;36.17;;
16800;SDS011;8518;53.236;10.384;2023-02-15T01:13:48;128.33;;;37.03;;
16800;SDS011;8518;53.236;10.384;2023-02-15T01:16:15;112.33;;;36.73;;
16800;SDS011;8518;53.236;10.384;2023-02-15T01:18:42;53.33;;;32.03;;
16800;SDS011;8518;53.236;10.384;2023-02-15T01:21:12;56.70;;;32.83;;
16800;SDS011;8518;53.236;10.384;2023-02-15T01:23:40;144.57;;;36.53;;
16800;SDS011;8518;53.236;10.384;2023-02-15T01:26:06;90.40;;;34.90;;
16800;SDS011;8518;53.236;10.384;2023-02-15T01:28:33;131.27;;;35.00;;
16800;SDS011;8518;53.236;10.384;2023-02-15T01:30:59;85.03;;;31.60;;
16800;SDS011;8518;53.236;10.384;2023-02-15T01:36:20;88.33;;;33.47;;
16800;SDS011;8518;53.236;10.384;2023-02-15T01:38:46;57.27;;;31.37;;
16800;SDS011;8518;53.236;10.384;2023-02-15T01:41:13;83.27;;;32.13;;
16800;SDS011;8518;53.236;10.384;2023-02-15T01:43:56;95.20;;;33.57;;
16800;SDS011;8518;53.236;10.384;2023-02-15T01:46:27;135.37;;;35.13;;
16800;SDS011;8518;53.236;10.384;2023-02-15T01:49:02;84.37;;;34.13;;
16800;SDS011;8518;53.236;10.384;2023-02-15T01:54:38;95.77;;;33.10;;
16800;SDS011;8518;53.236;10.384;2023-02-15T01:57:12;101.40;;;34.27;;
16800;SDS011;8518;53.236;10.384;2023-02-15T01:59:42;74.57;;;32.43;;
16800;SDS011;8518;53.236;10.384;2023-02-15T02:05:08;54.27;;;32.80;;
16800;SDS011;8518;53.236;10.384;2023-02-15T02:07:36;62.07;;;31.30;;
16800;SDS011;8518;53.236;10.384;2023-02-15T02:10:06;51.93;;;31.17;;
16800;SDS011;8518;53.236;10.384;2023-02-15T02:15:43;64.60;;;32.40;;
16800;SDS011;8518;53.236;10.384;2023-02-15T02:21:09;115.13;;;33.33;;
16800;SDS011;8518;53.236;10.384;2023-02-15T02:24:16;59.20;;;31.83;;
16800;SDS011;8518;53.236;10.384;2023-02-15T02:46:59;67.17;;;30.13;;
16800;SDS011;8518;53.236;10.384;2023-02-15T02:49:45;75.10;;;30.80;;
16800;SDS011;8518;53.236;10.384;2023-02-15T03:00:46;132.77;;;32.50;;
16800;SDS011;8518;53.236;10.384;2023-02-15T03:03:34;66.00;;;30.30;;
16800;SDS011;8518;53.236;10.384;2023-02-15T03:06:10;97.43;;;32.53;;
16800;SDS011;8518;53.236;10.384;2023-02-15T03:08:43;45.00;;;28.83;;
16800;SDS011;8518;53.236;10.384;2023-02-15T03:11:13;94.23;;;30.80;;
16800;SDS011;8518;53.236;10.384;2023-02-15T03:13:39;95.63;;;30.77;;
16800;SDS011;8518;53.236;10.384;2023-02-15T03:16:05;82.47;;;28.87;;
16800;SDS011;8518;53.236;10.384;2023-02-15T03:21:29;88.07;;;30.23;;
16800;SDS011;8518;53.236;10.384;2023-02-15T03:24:01;81.93;;;29.37;;
16800;SDS011;8518;53.236;10.384;2023-02-15T03:26:34;146.20;;;31.97;;
16800;SDS011;8518;53.236;10.384;2023-02-15T03:29:03;131.00;;;30.77;;
16800;SDS011;8518;53.236;10.384;2023-02-15T03:31:32;121.43;;;30.27;;
16800;SDS011;8518;53.236;10.384;2023-02-15T03:34:02;62.47;;;27.53;;
16800;SDS011;8518;53.236;10.384;2023-02-15T03:45:09;70.00;;;26.63;;
16800;SDS011;8518;53.236;10.384;2023-02-15T03:47:42;85.63;;;26.93;;
16800;SDS011;8518;53.236;10.384;2023-02-15T03:50:12;101.13;;;28.43;;
16800;SDS011;8518;53.236;10.384;2023-02-15T03:53:02;46.77;;;25.53;;
16800;SDS011;8518;53.236;10.384;2023-02-15T03:55:33;134.10;;;28.83;;
16800;SDS011;8518;53.236;10.384;2023-02-15T03:57:59;67.87;;;26.40;;
16800;SDS011;8518;53.236;10.384;2023-02-15T04:00:44;42.47;;;26.50;;
16800;SDS011;8518;53.236;10.384;2023-02-15T04:06:38;68.97;;;26.80;;
16800;SDS011;8518;53.236;10.384;2023-02-15T04:09:04;116.30;;;28.13;;
16800;SDS011;8518;53.236;10.384;2023-02-15T04:18:22;83.57;;;24.17;;
16800;SDS011;8518;53.236;10.384;2023-02-15T04:21:06;66.60;;;23.73;;
16800;SDS011;8518;53.236;10.384;2023-02-15T04:24:00;108.43;;;25.33;;
16800;SDS011;8518;53.236;10.384;2023-02-15T04:26:47;50.50;;;22.83;;
16800;SDS011;8518;53.236;10.384;2023-02-15T04:29:14;34.03;;;22.60;;
16800;SDS011;8518;53.236;10.384;2023-02-15T04:31:52;56.23;;;25.10;;
16800;SDS011;8518;53.236;10.384;2023-02-15T04:34:19;150.50;;;27.93;;
16800;SDS011;8518;53.236;10.384;2023-02-15T04:36:45;107.67;;;26.03;;
16800;SDS011;8518;53.236;10.384;2023-02-15T04:39:14;48.13;;;23.50;;
16800;SDS011;8518;53.236;10.384;2023-02-15T04:44:41;81.70;;;25.67;;
16800;SDS011;8518;53.236;10.384;2023-02-15T04:47:08;50.07;;;23.20;;
16800;SDS011;8518;53.236;10.384;2023-02-15T04:49:34;78.67;;;25.37;;
16800;SDS011;8518;53.236;10.384;2023-02-15T04:52:00;83.50;;;25.07;;
16800;SDS011;8518;53.236;10.384;2023-02-15T04:54:26;54.10;;;23.70;;
16800;SDS011;8518;53.236;10.384;2023-02-15T04:56:52;45.37;;;23.90;;
16800;SDS011;8518;53.236;10.384;2023-02-15T04:59:18;62.47;;;24.80;;
16800;SDS011;8518;53.236;10.384;2023-02-15T05:04:34;93.00;;;24.03;;
16800;SDS011;8518;53.236;10.384;2023-02-15T05:07:00;67.00;;;23.53;;
16800;SDS011;8518;53.236;10.384;2023-02-15T05:09:25;54.90;;;23.37;;
16800;SDS011;8518;53.236;10.384;2023-02-15T05:11:53;50.77;;;21.37;;
16800;SDS011;8518;53.236;10.384;2023-02-15T05:14:19;78.93;;;23.77;;
16800;SDS011;8518;53.236;10.384;2023-02-15T05:16:44;136.20;;;25.17;;
16800;SDS011;8518;53.236;10.384;2023-02-15T05:19:10;105.17;;;25.97;;
16800;SDS011;8518;53.236;10.384;2023-02-15T05:21:36;116.67;;;25.07;;
16800;SDS011;8518;53.236;10.384;2023-02-15T05:24:02;41.00;;;22.83;;
16800;SDS011;8518;53.236;10.384;2023-02-15T05:26:48;35.23;;;20.67;;
16800;SDS011;8518;53.236;10.384;2023-02-15T05:29:32;53.57;;;21.93;;
16800;SDS011;8518;53.236;10.384;2023-02-15T05:31:58;75.17;;;24.10;;
16800;SDS011;8518;53.236;10.384;2023-02-15T05:34:24;103.60;;;24.37;;
16800;SDS011;8518;53.236;10.384;2023-02-15T05:36:49;121.17;;;25.27;;
16800;SDS011;8518;53.236;10.384;2023-02-15T05:39:17;84.27;;;23.60;;
16800;SDS011;8518;53.236;10.384;2023-02-15T05:41:43;37.63;;;19.53;;
16800;SDS011;8518;53.236;10.384;2023-02-15T05:44:09;93.30;;;23.27;;
16800;SDS011;8518;53.236;10.384;2023-02-15T05:46:35;42.30;;;19.27;;
16800;SDS011;8518;53.236;10.384;2023-02-15T05:49:01;95.30;;;23.37;;
16800;SDS011;8518;53.236;10.384;2023-02-15T05:51:27;55.60;;;21.83;;
16800;SDS011;8518;53.236;10.384;2023-02-15T05:53:53;33.60;;;19.17;;
16800;SDS011;8518;53.236;10.384;2023-02-15T05:56:19;67.73;;;21.53;;
16800;SDS011;8518;53.236;10.384;2023-02-15T05:58:45;113.57;;;24.03;;
16800;SDS011;8518;53.236;10.384;2023-02-15T06:01:12;61.90;;;21.63;;
16800;SDS011;8518;53.236;10.384;2023-02-15T06:03:42;84.60;;;22.67;;
16800;SDS011;8518;53.236;10.384;2023-02-15T06:06:09;123.67;;;25.77;;
16800;SDS011;8518;53.236;10.384;2023-02-15T06:08:35;60.57;;;21.57;;
16800;SDS011;8518;53.236;10.384;2023-02-15T06:11:01;79.07;;;21.57;;
16800;SDS011;8518;53.236;10.384;2023-02-15T06:13:28;117.63;;;27.33;;
16800;SDS011;8518;53.236;10.384;2023-02-15T06:15:54;46.07;;;22.23;;
16800;SDS011;8518;53.236;10.384;2023-02-15T06:18:20;87.73;;;24.40;;
16800;SDS011;8518;53.236;10.384;2023-02-15T06:20:46;66.50;;;23.97;;
16800;SDS011;8518;53.236;10.384;2023-02-15T06:26:34;61.10;;;22.37;;
16800;SDS011;8518;53.236;10.384;2023-02-15T06:32:22;67.03;;;24.40;;
16800;SDS011;8518;53.236;10.384;2023-02-15T06:34:48;73.40;;;24.10;;
16800;SDS011;8518;53.236;10.384;2023-02-15T06:37:14;52.50;;;22.57;;
16800;SDS011;8518;53.236;10.384;2023-02-15T06:39:40;53.33;;;23.70;;
16800;SDS011;8518;53.236;10.384;2023-02-15T06:45:27;46.03;;;22.77;;
16800;SDS011;8518;53.236;10.384;2023-02-15T06:47:53;69.33;;;24.07;;
16800;SDS011;8518;53.236;10.384;2023-02-15T06:50:19;44.87;;;22.87;;
16800;SDS011;8518;53.236;10.384;2023-02-15T06:56:07;63.73;;;24.40;;
16800;SDS011;8518;53.236;10.384;2023-02-15T06:58:34;42.20;;;22.70;;
16800;SDS011;8518;53.236;10.384;2023-02-15T07:01:00;46.27;;;22.67;;
16800;SDS011;8518;53.236;10.384;2023-02-15T07:06:48;42.43;;;21.50;;
16800;SDS011;8518;53.236;10.384;2023-02-15T07:09:14;47.97;;;22.33;;
16800;SDS011;8518;53.236;10.384;2023-02-15T07:15:02;62.43;;;22.00;;
16800;SDS011;8518;53.236;10.384;2023-02-15T07:17:30;53.30;;;20.97;;
16800;SDS011;8518;53.236;10.384;2023-02-15T07:19:56;58.13;;;21.17;;
16800;SDS011;8518;53.236;10.384;2023-02-15T07:25:44;65.53;;;22.93;;
16800;SDS011;8518;53.236;10.384;2023-02-15T07:31:32;64.30;;;22.37;;
16800;SDS011;8518;53.236;10.384;2023-02-15T07:33:58;61.40;;;21.10;;
16800;SDS011;8518;53.236;10.384;2023-02-15T07:36:23;63.57;;;20.57;;
16800;SDS011;8518;53.236;10.384;2023-02-15T07:38:49;66.27;;;19.47;;
16800;SDS011;8518;53.236;10.384;2023-02-15T07:41:15;47.23;;;17.67;;
16800;SDS011;8518;53.236;10.384;2023-02-15T07:43:43;50.00;;;18.77;;
16800;SDS011;8518;53.236;10.384;2023-02-15T07:46:10;54.53;;;19.07;;
16800;SDS011;8518;53.236;10.384;2023-02-15T07:48:38;64.63;;;19.20;;
16800;SDS011;8518;53.236;10.384;2023-02-15T07:51:05;53.73;;;20.10;;
16800;SDS011;8518;53.236;10.384;2023-02-15T07:56:54;66.87;;;19.73;;
16800;SDS011;8518;53.236;10.384;2023-02-15T07:59:20;38.73;;;17.70;;
16800;SDS011;8518;53.236;10.384;2023-02-15T08:05:08;44.83;;;18.87;;
16800;SDS011;8518;53.236;10.384;2023-02-15T08:07:34;29.13;;;16.80;;
16800;SDS011;8518;53.236;10.384;2023-02-15T08:10:00;60.17;;;18.70;;
16800;SDS011;8518;53.236;10.384;2023-02-15T08:15:48;48.27;;;16.83;;
16800;SDS011;8518;53.236;10.384;2023-02-15T08:18:15;42.57;;;17.27;;
16800;SDS011;8518;53.236;10.384;2023-02-15T08:20:41;23.53;;;15.77;;
16800;SDS011;8518;53.236;10.384;2023-02-15T08:26:30;36.00;;;18.10;;
16800;SDS011;8518;53.236;10.384;2023-02-15T08:28:56;25.93;;;15.97;;
16800;SDS011;8518;53.236;10.384;2023-02-15T08:31:22;21.37;;;14.70;;
16800;SDS011;8518;53.236;10.384;2023-02-15T08:33:49;28.60;;;15.83;;
16800;SDS011;8518;53.236;10.384;2023-02-15T08:36:18;41.23;;;14.93;;
16800;SDS011;8518;53.236;10.384;2023-02-15T08:38:45;24.43;;;14.33;;
16800;SDS011;8518;53.236;10.384;2023-02-15T08:43:45;21.03;;;15.00;;
16800;SDS011;8518;53.236;10.384;2023-02-15T08:46:13;24.33;;;14.80;;
16800;SDS011;8518;53.236;10.384;2023-02-15T08:48:39;39.30;;;15.40;;
16800;SDS011;8518;53.236;10.384;2023-02-15T08:51:06;17.93;;;14.37;;
16800;SDS011;8518;53.236;10.384;2023-02-15T08:53:54;20.17;;;14.03;;
16800;SDS011;8518;53.236;10.384;2023-02-15T08:56:22;27.03;;;15.20;;
16800;SDS011;8518;53.236;10.384;2023-02-15T08:58:50;17.87;;;14.13;;
16800;SDS011;8518;53.236;10.384;2023-02-15T09:01:18;16.17;;;13.43;;
16800;SDS011;8518;53.236;10.384;2023-02-15T09:03:46;21.77;;;14.63;;
16800;SDS011;8518;53.236;10.384;2023-02-15T09:06:14;16.67;;;12.63;;
16800;SDS011;8518;53.236;10.384;2023-02-15T09:08:41;17.00;;;12.63;;
16800;SDS011;8518;53.236;10.384;2023-02-15T09:11:12;18.40;;;12.87;;
16800;SDS011;8518;53.236;10.384;2023-02-15T09:13:42;16.83;;;13.73;;
16800;SDS011;8518;53.236;10.384;2023-02-15T09:16:08;19.73;;;13.50;;
16800;SDS011;8518;53.236;10.384;2023-02-15T09:18:36;15.60;;;13.03;;
16800;SDS011;8518;53.236;10.384;2023-02-15T09:21:06;15.70;;;12.43;;
16800;SDS011;8518;53.236;10.384;2023-02-15T09:26:56;21.00;;;13.00;;
16800;SDS011;8518;53.236;10.384;2023-02-15T09:29:22;19.27;;;13.37;;
16800;SDS011;8518;53.236;10.384;2023-02-15T09:35:09;19.80;;;13.73;;
16800;SDS011;8518;53.236;10.384;2023-02-15T09:41:08;15.23;;;12.70;;
16800;SDS011;8518;53.236;10.384;2023-02-15T09:46:27;14.47;;;12.67;;
16800;SDS011;8518;53.236;10.384;2023-02-15T09:55:45;14.50;;;11.93;;
16800;SDS011;8518;53.236;10.384;2023-02-15T10:10:01;16.23;;;13.70;;
16800;SDS011;8518;53.236;10.384;2023-02-15T10:16:04;14.13;;;12.63;;
16800;SDS011;8518;53.236;10.384;2023-02-15T10:27:00;16.33;;;13.30;;
16800;SDS011;8518;53.236;10.384;2023-02-15T10:29:43;16.20;;;14.00;;
16800;SDS011;8518;53.236;10.384;2023-02-15T10:32:31;14.93;;;12.70;;
16800;SDS011;8518;53.236;10.384;2023-02-15T10:35:20;15.47;;;13.20;;
16800;SDS011;8518;53.236;10.384;2023-02-15T10:54:42;12.87;;;11.40;;
16800;SDS011;8518;53.236;10.384;2023-02-15T11:03:20;12.67;;;11.37;;
16800;SDS011;8518;53.236;10.384;2023-02-15T11:08:34;11.30;;;10.10;;
16800;SDS011;8518;53.236;10.384;2023-02-15T11:11:06;10.67;;;9.57;;
16800;SDS011;8518;53.236;10.384;2023-02-15T11:13:41;10.03;;;9.03;;
16800;SDS011;8518;53.236;10.384;2023-02-15T11:16:14;10.43;;;9.40;;
16800;SDS011;8518;53.236;10.384;2023-02-15T11:18:55;10.10;;;9.10;;
16800;SDS011;8518;53.236;10.384;2023-02-15T11:21:36;10.37;;;9.37;;
16800;SDS011;8518;53.236;10.384;2023-02-15T11:24:11;11.67;;;10.40;;
16800;SDS011;8518;53.236;10.384;2023-02-15T11:26:43;10.57;;;9.60;;
16800;SDS011;8518;53.236;10.384;2023-02-15T11:31:47;10.88;;;9.80;;
16800;SDS011;8518;53.236;10.384;2023-02-15T11:34:20;10.73;;;9.73;;
16800;SDS011;8518;53.236;10.384;2023-02-15T11:36:52;10.52;;;9.63;;
16800;SDS011;8518;53.236;10.384;2023-02-15T11:39:23;10.10;;;9.20;;
16800;SDS011;8518;53.236;10.384;2023-02-15T11:41:54;10.80;;;9.85;;
16800;SDS011;8518;53.236;10.384;2023-02-15T11:44:26;10.05;;;9.15;;
16800;SDS011;8518;53.236;10.384;2023-02-15T11:47:00;9.50;;;8.65;;
16800;SDS011;8518;53.236;10.384;2023-02-15T11:49:33;9.65;;;8.85;;
16800;SDS011;8518;53.236;10.384;2023-02-15T11:52:00;9.35;;;8.63;;
16800;SDS011;8518;53.236;10.384;2023-02-15T11:54:33;9.35;;;8.63;;
16800;SDS011;8518;53.236;10.384;2023-02-15T11:59:53;8.57;;;7.88;;
16800;SDS011;8518;53.236;10.384;2023-02-15T12:02:27;9.82;;;9.02;;
16800;SDS011;8518;53.236;10.384;2023-02-15T12:04:59;9.98;;;9.18;;
16800;SDS011;8518;53.236;10.384;2023-02-15T12:07:32;9.63;;;8.82;;
16800;SDS011;8518;53.236;10.384;2023-02-15T12:15:41;9.13;;;8.35;;
16800;SDS011;8518;53.236;10.384;2023-02-15T12:18:24;10.68;;;9.75;;
16800;SDS011;8518;53.236;10.384;2023-02-15T12:21:14;10.32;;;9.40;;
16800;SDS011;8518;53.236;10.384;2023-02-15T12:23:50;8.63;;;7.88;;
16800;SDS011;8518;53.236;10.384;2023-02-15T12:29:20;8.77;;;8.07;;
16800;SDS011;8518;53.236;10.384;2023-02-15T12:31:50;10.18;;;8.82;;
16800;SDS011;8518;53.236;10.384;2023-02-15T12:34:28;10.20;;;9.20;;
16800;SDS011;8518;53.236;10.384;2023-02-15T12:36:57;9.40;;;8.60;;
16800;SDS011;8518;53.236;10.384;2023-02-15T12:39:30;9.20;;;8.50;;
16800;SDS011;8518;53.236;10.384;2023-02-15T12:50:50;9.05;;;8.25;;
16800;SDS011;8518;53.236;10.384;2023-02-15T12:55:49;9.15;;;8.35;;
16800;SDS011;8518;53.236;10.384;2023-02-15T12:58:28;10.15;;;9.30;;
16800;SDS011;8518;53.236;10.384;2023-02-15T13:03:36;9.25;;;8.45;;
16800;SDS011;8518;53.236;10.384;2023-02-15T13:06:04;9.48;;;8.68;;
16800;SDS011;8518;53.236;10.384;2023-02-15T13:08:34;9.05;;;8.25;;
16800;SDS011;8518;53.236;10.384;2023-02-15T13:11:12;10.48;;;9.55;;
16800;SDS011;8518;53.236;10.384;2023-02-15T13:13:51;9.93;;;9.13;;
16800;SDS011;8518;53.236;10.384;2023-02-15T13:16:32;8.90;;;8.20;;
16800;SDS011;8518;53.236;10.384;2023-02-15T13:19:18;9.00;;;8.20;;
16800;SDS011;8518;53.236;10.384;2023-02-15T13:22:17;9.98;;;9.07;;
16800;SDS011;8518;53.236;10.384;2023-02-15T13:24:46;10.40;;;9.50;;
16800;SDS011;8518;53.236;10.384;2023-02-15T13:27:19;9.52;;;8.60;;
16800;SDS011;8518;53.236;10.384;2023-02-15T13:29:49;9.38;;;8.68;;
16800;SDS011;8518;53.236;10.384;2023-02-15T13:32:38;8.27;;;7.57;;
16800;SDS011;8518;53.236;10.384;2023-02-15T13:35:09;10.63;;;9.73;;
16800;SDS011;8518;53.236;10.384;2023-02-15T13:40:35;9.25;;;8.45;;
16800;SDS011;8518;53.236;10.384;2023-02-15T13:45:56;9.82;;;8.98;;
16800;SDS011;8518;53.236;10.384;2023-02-15T13:51:41;9.65;;;8.77;;
16800;SDS011;8518;53.236;10.384;2023-02-15T14:22:01;10.80;;;9.80;;
16800;SDS011;8518;53.236;10.384;2023-02-15T14:27:23;10.18;;;9.27;;
16800;SDS011;8518;53.236;10.384;2023-02-15T14:30:18;11.23;;;10.13;;
16800;SDS011;8518;53.236;10.384;2023-02-15T14:33:33;11.38;;;10.27;;
16800;SDS011;8518;53.236;10.384;2023-02-15T14:35:39;11.27;;;10.20;;
16800;SDS011;8518;53.236;10.384;2023-02-15T14:38:20;11.82;;;10.63;;
16800;SDS011;8518;53.236;10.384;2023-02-15T14:40:55;11.73;;;10.73;;
16800;SDS011;8518;53.236;10.384;2023-02-15T14:49:03;13.07;;;11.85;;
16800;SDS011;8518;53.236;10.384;2023-02-15T14:54:09;12.53;;;11.33;;
16800;SDS011;8518;53.236;10.384;2023-02-15T14:56:35;13.17;;;11.80;;
16800;SDS011;8518;53.236;10.384;2023-02-15T14:59:22;12.23;;;11.03;;
16800;SDS011;8518;53.236;10.384;2023-02-15T15:02:01;12.90;;;11.60;;
16800;SDS011;8518;53.236;10.384;2023-02-15T15:04:38;12.97;;;11.67;;
16800;SDS011;8518;53.236;10.384;2023-02-15T15:07:09;13.20;;;11.83;;
16800;SDS011;8518;53.236;10.384;2023-02-15T15:09:40;13.17;;;11.77;;
16800;SDS011;8518;53.236;10.384;2023-02-15T15:15:15;13.90;;;12.33;;
16800;SDS011;8518;53.236;10.384;2023-02-15T15:18:42;13.23;;;11.93;;
16800;SDS011;8518;53.236;10.384;2023-02-15T15:21:10;14.33;;;12.83;;
16800;SDS011;8518;53.236;10.384;2023-02-15T15:26:23;15.40;;;13.43;;
16800;SDS011;8518;53.236;10.384;2023-02-15T15:48:27;18.90;;;15.80;;
16800;SDS011;8518;53.236;10.384;2023-02-15T15:50:53;18.97;;;15.77;;
16800;SDS011;8518;53.236;10.384;2023-02-15T15:53:28;20.57;;;16.43;;
16800;SDS011;8518;53.236;10.384;2023-02-15T15:56:02;17.37;;;15.43;;
16800;SDS011;8518;53.236;10.384;2023-02-15T15:58:31;17.60;;;15.70;;
16800;SDS011;8518;53.236;10.384;2023-02-15T16:01:03;18.23;;;15.93;;
16800;SDS011;8518;53.236;10.384;2023-02-15T16:03:38;21.97;;;17.83;;
16800;SDS011;8518;53.236;10.384;2023-02-15T16:06:55;27.63;;;20.23;;
16800;SDS011;8518;53.236;10.384;2023-02-15T16:09:36;22.10;;;17.87;;
16800;SDS011;8518;53.236;10.384;2023-02-15T16:11:56;20.30;;;16.93;;
16800;SDS011;8518;53.236;10.384;2023-02-15T16:14:35;28.77;;;18.57;;
16800;SDS011;8518;53.236;10.384;2023-02-15T16:17:07;24.80;;;19.37;;
16800;SDS011;8518;53.236;10.384;2023-02-15T16:19:43;23.57;;;18.47;;
16800;SDS011;8518;53.236;10.384;2023-02-15T16:22:28;23.90;;;19.43;;
16800;SDS011;8518;53.236;10.384;2023-02-15T16:27:44;22.97;;;18.60;;
16800;SDS011;8518;53.236;10.384;2023-02-15T16:32:54;23.33;;;18.80;;
16800;SDS011;8518;53.236;10.384;2023-02-15T16:35:29;25.13;;;19.60;;
16800;SDS011;8518;53.236;10.384;2023-02-15T16:37:55;27.43;;;20.53;;
16800;SDS011;8518;53.236;10.384;2023-02-15T16:42:53;26.23;;;20.13;;
16800;SDS011;8518;53.236;10.384;2023-02-15T16:45:25;24.87;;;20.23;;
16800;SDS011;8518;53.236;10.384;2023-02-15T16:47:53;24.77;;;20.07;;
16800;SDS011;8518;53.236;10.384;2023-02-15T16:50:40;25.20;;;19.10;;
16800;SDS011;8518;53.236;10.384;2023-02-15T16:53:22;24.83;;;19.17;;
16800;SDS011;8518;53.236;10.384;2023-02-15T16:55:52;24.93;;;19.47;;
16800;SDS011;8518;53.236;10.384;2023-02-15T16:58:23;27.43;;;20.80;;
16800;SDS011;8518;53.236;10.384;2023-02-15T17:01:12;27.93;;;20.47;;
16800;SDS011;8518;53.236;10.384;2023-02-15T17:04:11;27.93;;;21.20;;
16800;SDS011;8518;53.236;10.384;2023-02-15T17:09:24;26.60;;;21.03;;
16800;SDS011;8518;53.236;10.384;2023-02-15T17:11:50;29.03;;;21.77;;
16800;SDS011;8518;53.236;10.384;2023-02-15T17:14:20;29.60;;;21.97;;
16800;SDS011;8518;53.236;10.384;2023-02-15T17:16:58;30.60;;;22.57;;
16800;SDS011;8518;53.236;10.384;2023-02-15T17:19:32;28.43;;;22.43;;
16800;SDS011;8518;53.236;10.384;2023-02-15T17:22:16;31.00;;;23.57;;
16800;SDS011;8518;53.236;10.384;2023-02-15T17:24:44;29.73;;;22.93;;
16800;SDS011;8518;53.236;10.384;2023-02-15T17:27:17;27.17;;;20.77;;
16800;SDS011;8518;53.236;10.384;2023-02-15T17:29:48;31.27;;;22.50;;
16800;SDS011;8518;53.236;10.384;2023-02-15T17:32:36;25.67;;;19.53;;
16800;SDS011;8518;53.236;10.384;2023-02-15T17:37:42;28.30;;;21.13;;
16800;SDS011;8518;53.236;10.384;2023-02-15T17:40:25;28.07;;;20.87;;
16800;SDS011;8518;53.236;10.384;2023-02-15T17:43:09;29.00;;;21.03;;
16800;SDS011;8518;53.236;10.384;2023-02-15T17:45:44;32.77;;;24.20;;
16800;SDS011;8518;53.236;10.384;2023-02-15T17:48:18;34.87;;;24.67;;
16800;SDS011;8518;53.236;10.384;2023-02-15T17:50:46;46.90;;;27.67;;
16800;SDS011;8518;53.236;10.384;2023-02-15T17:53:13;34.57;;;23.13;;
16800;SDS011;8518;53.236;10.384;2023-02-15T17:55:42;32.67;;;22.80;;
16800;SDS011;8518;53.236;10.384;2023-02-15T17:58:11;44.30;;;25.97;;
16800;SDS011;8518;53.236;10.384;2023-02-15T18:00:42;56.20;;;29.37;;
16800;SDS011;8518;53.236;10.384;2023-02-15T18:06:56;31.83;;;22.40;;
16800;SDS011;8518;53.236;10.384;2023-02-15T18:09:40;28.57;;;20.97;;
16800;SDS011;8518;53.236;10.384;2023-02-15T18:12:33;30.07;;;22.53;;
16800;SDS011;8518;53.236;10.384;2023-02-15T18:15:02;30.73;;;21.67;;
16800;SDS011;8518;53.236;10.384;2023-02-15T18:17:30;31.47;;;23.13;;
16800;SDS011;8518;53.236;10.384;2023-02-15T18:19:58;29.47;;;21.83;;
16800;SDS011;8518;53.236;10.384;2023-02-15T18:25:19;30.33;;;21.23;;
16800;SDS011;8518;53.236;10.384;2023-02-15T18:27:46;28.93;;;20.93;;
16800;SDS011;8518;53.236;10.384;2023-02-15T18:30:16;26.70;;;20.50;;
16800;SDS011;8518;53.236;10.384;2023-02-15T18:32:55;27.40;;;19.70;;
16800;SDS011;8518;53.236;10.384;2023-02-15T18:35:23;28.00;;;20.03;;
16800;SDS011;8518;53.236;10.384;2023-02-15T18:37:51;28.53;;;20.43;;
16800;SDS011;8518;53.236;10.384;2023-02-15T18:40:18;28.50;;;20.63;;
16800;SDS011;8518;53.236;10.384;2023-02-15T18:42:58;29.43;;;19.97;;
16800;SDS011;8518;53.236;10.384;2023-02-15T18:45:24;27.97;;;20.50;;
16800;SDS011;8518;53.236;10.384;2023-02-15T18:47:56;29.17;;;21.57;;
16800;SDS011;8518;53.236;10.384;2023-02-15T18:50:22;27.50;;;21.53;;
16800;SDS011;8518;53.236;10.384;2023-02-15T18:52:53;29.23;;;22.23;;
16800;SDS011;8518;53.236;10.384;2023-02-15T18:55:20;31.57;;;23.00;;
16800;SDS011;8518;53.236;10.384;2023-02-15T18:57:48;30.70;;;23.43;;
16800;SDS011;8518;53.236;10.384;2023-02-15T19:00:28;38.70;;;28.00;;
16800;SDS011;8518;53.236;10.384;2023-02-15T19:03:06;34.20;;;24.37;;
16800;SDS011;8518;53.236;10.384;2023-02-15T19:05:31;32.97;;;22.27;;
16800;SDS011;8518;53.236;10.384;2023-02-15T19:07:57;28.33;;;22.57;;
16800;SDS011;8518;53.236;10.384;2023-02-15T19:10:25;31.33;;;21.73;;
16800;SDS011;8518;53.236;10.384;2023-02-15T19:13:00;32.30;;;22.90;;
16800;SDS011;8518;53.236;10.384;2023-02-15T19:15:35;31.57;;;23.33;;
16800;SDS011;8518;53.236;10.384;2023-02-15T19:18:04;32.30;;;23.30;;
16800;SDS011;8518;53.236;10.384;2023-02-15T19:20:39;34.00;;;24.40;;
16800;SDS011;8518;53.236;10.384;2023-02-15T19:23:20;31.43;;;23.47;;
16800;SDS011;8518;53.236;10.384;2023-02-15T19:25:49;34.57;;;24.47;;
16800;SDS011;8518;53.236;10.384;2023-02-15T19:28:28;30.70;;;22.87;;
16800;SDS011;8518;53.236;10.384;2023-02-15T19:31:01;33.17;;;23.87;;
16800;SDS011;8518;53.236;10.384;2023-02-15T19:33:42;31.97;;;23.30;;
16800;SDS011;8518;53.236;10.384;2023-02-15T19:36:12;35.50;;;24.20;;
16800;SDS011;8518;53.236;10.384;2023-02-15T19:38:48;33.40;;;23.83;;
16800;SDS011;8518;53.236;10.384;2023-02-15T19:41:39;33.13;;;22.93;;
16800;SDS011;8518;53.236;10.384;2023-02-15T19:44:07;33.40;;;22.67;;
16800;SDS011;8518;53.236;10.384;2023-02-15T19:46:34;32.40;;;22.57;;
16800;SDS011;8518;53.236;10.384;2023-02-15T19:49:00;30.23;;;21.83;;
16800;SDS011;8518;53.236;10.384;2023-02-15T19:51:26;31.00;;;22.33;;
16800;SDS011;8518;53.236;10.384;2023-02-15T19:53:57;33.47;;;23.80;;
16800;SDS011;8518;53.236;10.384;2023-02-15T19:56:23;35.37;;;23.67;;